sensor_id;sensor_type;location;lat;lon;timestamp;pressure;altitude;pressure_sealevel;temperature;humidity
10606;BME280;5350;42.698;23.148;2023-03-03T00:00:31;93675.63;;;4.46;100.00
10606;BME280;5350;42.698;23.148;2023-03-03T00:03:01;93683.19;;;4.48;100.00
10606;BME280;5350;42.698;23.148;2023-03-03T00:05:31;93672.84;;;4.58;100.00
10606;BME280;5350;42.698;23.148;2023-03-03T00:07:58;93678.00;;;4.53;100.00
10606;BME280;5350;42.698;23.148;2023-03-03T00:10:25;93679.38;;;4.60;100.00
10606;BME280;5350;42.698;23.148;2023-03-03T00:12:53;93680.66;;;4.58;100.00
10606;BME280;5350;42.698;23.148;2023-03-03T00:15:22;93664.00;;;4.59;100.00
10606;BME280;5350;42.698;23.148;2023-03-03T00:17:50;93664.53;;;4.61;100.00
10606;BME280;5350;42.698;23.148;2023-03-03T00:20:33;93660.06;;;4.56;100.00
10606;BME280;5350;42.698;23.148;2023-03-03T00:23:12;93661.34;;;4.54;100.00
10606;BME280;5350;42.698;23.148;2023-03-03T00:25:42;93664.00;;;4.64;100.00
10606;BME280;5350;42.698;23.148;2023-03-03T00:28:19;93662.19;;;4.64;100.00
10606;BME280;5350;42.698;23.148;2023-03-03T00:30:48;93649.84;;;4.50;100.00
10606;BME280;5350;42.698;23.148;2023-03-03T00:33:24;93657.72;;;4.60;100.00
10606;BME280;5350;42.698;23.148;2023-03-03T00:35:54;93661.28;;;4.49;100.00
10606;BME280;5350;42.698;23.148;2023-03-03T00:38:21;93654.84;;;4.56;100.00
10606;BME280;5350;42.698;23.148;2023-03-03T00:40:48;93654.88;;;4.61;100.00
10606;BME280;5350;42.698;23.148;2023-03-03T00:43:19;93651.28;;;4.72;100.00
10606;BME280;5350;42.698;23.148;2023-03-03T00:45:48;93654.69;;;4.73;100.00
10606;BME280;5350;42.698;23.148;2023-03-03T00:48:21;93651.78;;;4.69;100.00
10606;BME280;5350;42.698;23.148;2023-03-03T00:50:48;93630.72;;;4.71;100.00
10606;BME280;5350;42.698;23.148;2023-03-03T00:53:17;93635.69;;;4.77;100.00
10606;BME280;5350;42.698;23.148;2023-03-03T00:55:45;93641.75;;;4.88;100.00
10606;BME280;5350;42.698;23.148;2023-03-03T00:58:12;93635.97;;;4.81;100.00
10606;BME280;5350;42.698;23.148;2023-03-03T01:00:41;93627.53;;;4.64;100.00
10606;BME280;5350;42.698;23.148;2023-03-03T01:03:09;93627.53;;;4.59;100.00
10606;BME280;5350;42.698;23.148;2023-03-03T01:05:38;93623.38;;;4.63;100.00
10606;BME280;5350;42.698;23.148;2023-03-03T01:08:05;93621.53;;;4.58;100.00
10606;BME280;5350;42.698;23.148;2023-03-03T01:10:35;93619.13;;;4.52;100.00
10606;BME280;5350;42.698;23.148;2023-03-03T01:13:02;93621.22;;;4.55;100.00
10606;BME280;5350;42.698;23.148;2023-03-03T01:15:30;93621.31;;;4.65;100.00
10606;BME280;5350;42.698;23.148;2023-03-03T01:17:58;93611.88;;;4.59;100.00
10606;BME280;5350;42.698;23.148;2023-03-03T01:20:25;93614.25;;;4.60;100.00
10606;BME280;5350;42.698;23.148;2023-03-03T01:22:51;93613.97;;;4.62;100.00
10606;BME280;5350;42.698;23.148;2023-03-03T01:25:18;93621.31;;;4.65;100.00
10606;BME280;5350;42.698;23.148;2023-03-03T01:27:45;93612.97;;;4.63;100.00
10606;BME280;5350;42.698;23.148;2023-03-03T01:30:12;93609.81;;;4.66;100.00
10606;BME280;5350;42.698;23.148;2023-03-03T01:32:39;93604.88;;;4.64;100.00
10606;BME280;5350;42.698;23.148;2023-03-03T01:35:08;93617.44;;;4.72;100.00
10606;BME280;5350;42.698;23.148;2023-03-03T01:37:35;93617.16;;;4.74;100.00
10606;BME280;5350;42.698;23.148;2023-03-03T01:40:03;93608.06;;;4.76;100.00
10606;BME280;5350;42.698;23.148;2023-03-03T01:42:30;93610.97;;;4.85;100.00
10606;BME280;5350;42.698;23.148;2023-03-03T01:45:13;93608.59;;;4.78;100.00
10606;BME280;5350;42.698;23.148;2023-03-03T01:47:44;93604.19;;;4.84;100.00
10606;BME280;5350;42.698;23.148;2023-03-03T01:50:21;93612.25;;;4.82;100.00
10606;BME280;5350;42.698;23.148;2023-03-03T01:52:50;93597.41;;;4.83;100.00
10606;BME280;5350;42.698;23.148;2023-03-03T01:55:19;93602.09;;;4.81;100.00
10606;BME280;5350;42.698;23.148;2023-03-03T01:57:51;93604.94;;;4.74;100.00
10606;BME280;5350;42.698;23.148;2023-03-03T02:00:21;93601.53;;;4.74;100.00
10606;BME280;5350;42.698;23.148;2023-03-03T02:02:48;93599.44;;;4.76;100.00
10606;BME280;5350;42.698;23.148;2023-03-03T02:05:16;93604.13;;;4.74;100.00
10606;BME280;5350;42.698;23.148;2023-03-03T02:07:44;93605.41;;;4.66;100.00
10606;BME280;5350;42.698;23.148;2023-03-03T02:10:12;93599.94;;;4.68;100.00
10606;BME280;5350;42.698;23.148;2023-03-03T02:12:42;93601.25;;;4.70;100.00
10606;BME280;5350;42.698;23.148;2023-03-03T02:15:17;93596.81;;;4.66;100.00
10606;BME280;5350;42.698;23.148;2023-03-03T02:17:45;93592.88;;;4.63;100.00
10606;BME280;5350;42.698;23.148;2023-03-03T02:20:17;93595.78;;;4.72;100.00
10606;BME280;5350;42.698;23.148;2023-03-03T02:22:50;93598.41;;;4.72;100.00
10606;BME280;5350;42.698;23.148;2023-03-03T02:25:25;93599.41;;;4.61;100.00
10606;BME280;5350;42.698;23.148;2023-03-03T02:27:55;93589.19;;;4.54;100.00
10606;BME280;5350;42.698;23.148;2023-03-03T02:30:23;93584.22;;;4.48;100.00
10606;BME280;5350;42.698;23.148;2023-03-03T02:32:50;93592.06;;;4.58;100.00
10606;BME280;5350;42.698;23.148;2023-03-03T02:35:38;93594.72;;;4.68;100.00
10606;BME280;5350;42.698;23.148;2023-03-03T02:38:14;93595.78;;;4.67;100.00
10606;BME280;5350;42.698;23.148;2023-03-03T02:40:46;93577.78;;;4.60;100.00
10606;BME280;5350;42.698;23.148;2023-03-03T02:43:19;93593.19;;;4.67;100.00
10606;BME280;5350;42.698;23.148;2023-03-03T02:45:48;93576.69;;;4.56;100.00
10606;BME280;5350;42.698;23.148;2023-03-03T02:48:15;93584.00;;;4.54;100.00
10606;BME280;5350;42.698;23.148;2023-03-03T02:50:43;93586.81;;;4.48;100.00
10606;BME280;5350;42.698;23.148;2023-03-03T02:53:10;93584.75;;;4.55;100.00
10606;BME280;5350;42.698;23.148;2023-03-03T02:55:36;93594.22;;;4.71;100.00
10606;BME280;5350;42.698;23.148;2023-03-03T02:58:03;93589.47;;;4.58;100.00
10606;BME280;5350;42.698;23.148;2023-03-03T03:00:31;93578.44;;;4.41;100.00
10606;BME280;5350;42.698;23.148;2023-03-03T03:02:58;93582.09;;;4.45;100.00
10606;BME280;5350;42.698;23.148;2023-03-03T03:05:25;93588.91;;;4.51;100.00
10606;BME280;5350;42.698;23.148;2023-03-03T03:07:51;93584.22;;;4.53;100.00
10606;BME280;5350;42.698;23.148;2023-03-03T03:10:18;93583.41;;;4.47;100.00
10606;BME280;5350;42.698;23.148;2023-03-03T03:12:45;93582.94;;;4.50;100.00
10606;BME280;5350;42.698;23.148;2023-03-03T03:15:12;93579.00;;;4.48;100.00
10606;BME280;5350;42.698;23.148;2023-03-03T03:17:41;93580.25;;;4.40;100.00
10606;BME280;5350;42.698;23.148;2023-03-03T03:20:09;93575.06;;;4.45;100.00
10606;BME280;5350;42.698;23.148;2023-03-03T03:22:36;93577.41;;;4.42;100.00
10606;BME280;5350;42.698;23.148;2023-03-03T03:25:03;93576.94;;;4.50;100.00
10606;BME280;5350;42.698;23.148;2023-03-03T03:27:30;93569.59;;;4.47;100.00
10606;BME280;5350;42.698;23.148;2023-03-03T03:29:56;93571.66;;;4.40;100.00
10606;BME280;5350;42.698;23.148;2023-03-03T03:32:23;93576.88;;;4.40;100.00
10606;BME280;5350;42.698;23.148;2023-03-03T03:34:51;93570.63;;;4.41;100.00
10606;BME280;5350;42.698;23.148;2023-03-03T03:37:18;93566.94;;;4.37;100.00
10606;BME280;5350;42.698;23.148;2023-03-03T03:39:45;93571.16;;;4.43;100.00
10606;BME280;5350;42.698;23.148;2023-03-03T03:42:11;93570.59;;;4.36;100.00
10606;BME280;5350;42.698;23.148;2023-03-03T03:44:38;93569.50;;;4.27;100.00
10606;BME280;5350;42.698;23.148;2023-03-03T03:47:05;93562.53;;;4.42;100.00
10606;BME280;5350;42.698;23.148;2023-03-03T03:49:32;93563.25;;;4.28;100.00
10606;BME280;5350;42.698;23.148;2023-03-03T03:52:00;93562.50;;;4.32;100.00
10606;BME280;5350;42.698;23.148;2023-03-03T03:54:26;93566.94;;;4.32;100.00
10606;BME280;5350;42.698;23.148;2023-03-03T03:56:53;93556.69;;;4.20;100.00
10606;BME280;5350;42.698;23.148;2023-03-03T03:59:20;93562.00;;;4.35;100.00
10606;BME280;5350;42.698;23.148;2023-03-03T04:01:47;93562.00;;;4.35;100.00
10606;BME280;5350;42.698;23.148;2023-03-03T04:04:14;93559.94;;;4.42;100.00
10606;BME280;5350;42.698;23.148;2023-03-03T04:06:41;93559.66;;;4.34;100.00
10606;BME280;5350;42.698;23.148;2023-03-03T04:09:09;93556.59;;;4.47;100.00
10606;BME280;5350;42.698;23.148;2023-03-03T04:11:36;93558.38;;;4.41;100.00
10606;BME280;5350;42.698;23.148;2023-03-03T04:14:03;93546.91;;;4.42;100.00
10606;BME280;5350;42.698;23.148;2023-03-03T04:16:30;93556.03;;;4.40;100.00
10606;BME280;5350;42.698;23.148;2023-03-03T04:18:56;93558.13;;;4.43;100.00
10606;BME280;5350;42.698;23.148;2023-03-03T04:21:23;93560.50;;;4.49;100.00
10606;BME280;5350;42.698;23.148;2023-03-03T04:23:50;93557.19;;;4.59;100.00
10606;BME280;5350;42.698;23.148;2023-03-03T04:26:19;93566.06;;;4.63;100.00
10606;BME280;5350;42.698;23.148;2023-03-03T04:28:46;93561.13;;;4.66;100.00
10606;BME280;5350;42.698;23.148;2023-03-03T04:31:12;93559.81;;;4.64;100.00
10606;BME280;5350;42.698;23.148;2023-03-03T04:33:39;93561.38;;;4.70;100.00
10606;BME280;5350;42.698;23.148;2023-03-03T04:36:06;93556.72;;;4.72;100.00
10606;BME280;5350;42.698;23.148;2023-03-03T04:38:33;93551.78;;;4.80;100.00
10606;BME280;5350;42.698;23.148;2023-03-03T04:41:00;93552.59;;;4.81;100.00
10606;BME280;5350;42.698;23.148;2023-03-03T04:43:28;93553.09;;;4.83;100.00
10606;BME280;5350;42.698;23.148;2023-03-03T04:45:55;93552.06;;;4.84;100.00
10606;BME280;5350;42.698;23.148;2023-03-03T04:48:22;93552.84;;;4.84;100.00
10606;BME280;5350;42.698;23.148;2023-03-03T04:50:48;93553.66;;;4.90;100.00
10606;BME280;5350;42.698;23.148;2023-03-03T04:53:15;93556.53;;;4.94;100.00
10606;BME280;5350;42.698;23.148;2023-03-03T04:55:42;93556.28;;;4.95;100.00
10606;BME280;5350;42.698;23.148;2023-03-03T04:58:09;93559.41;;;4.92;100.00
10606;BME280;5350;42.698;23.148;2023-03-03T05:00:37;93566.44;;;4.92;100.00
10606;BME280;5350;42.698;23.148;2023-03-03T05:03:04;93566.72;;;4.95;100.00
10606;BME280;5350;42.698;23.148;2023-03-03T05:05:31;93560.72;;;5.00;100.00
10606;BME280;5350;42.698;23.148;2023-03-03T05:07:57;93563.59;;;4.98;100.00
10606;BME280;5350;42.698;23.148;2023-03-03T05:10:24;93568.28;;;5.01;100.00
10606;BME280;5350;42.698;23.148;2023-03-03T05:12:51;93566.97;;;4.99;100.00
10606;BME280;5350;42.698;23.148;2023-03-03T05:15:18;93574.03;;;4.98;100.00
10606;BME280;5350;42.698;23.148;2023-03-03T05:17:46;93570.38;;;4.94;100.00
10606;BME280;5350;42.698;23.148;2023-03-03T05:20:13;93572.44;;;4.97;100.00
10606;BME280;5350;42.698;23.148;2023-03-03T05:22:39;93572.47;;;5.02;100.00
10606;BME280;5350;42.698;23.148;2023-03-03T05:25:06;93565.44;;;5.03;100.00
10606;BME280;5350;42.698;23.148;2023-03-03T05:27:34;93569.84;;;4.92;100.00
10606;BME280;5350;42.698;23.148;2023-03-03T05:30:01;93573.25;;;4.98;100.00
10606;BME280;5350;42.698;23.148;2023-03-03T05:32:27;93569.34;;;5.00;100.00
10606;BME280;5350;42.698;23.148;2023-03-03T05:34:55;93569.88;;;5.02;100.00
10606;BME280;5350;42.698;23.148;2023-03-03T05:37:22;93565.97;;;5.05;100.00
10606;BME280;5350;42.698;23.148;2023-03-03T05:39:49;93577.19;;;5.10;100.00
10606;BME280;5350;42.698;23.148;2023-03-03T05:42:16;93575.38;;;5.16;100.00
10606;BME280;5350;42.698;23.148;2023-03-03T05:44:43;93581.38;;;5.16;100.00
10606;BME280;5350;42.698;23.148;2023-03-03T05:47:09;93567.78;;;5.09;100.00
10606;BME280;5350;42.698;23.148;2023-03-03T05:49:36;93584.75;;;5.12;100.00
10606;BME280;5350;42.698;23.148;2023-03-03T05:52:05;93581.09;;;5.03;100.00
10606;BME280;5350;42.698;23.148;2023-03-03T05:54:33;93585.47;;;4.97;100.00
10606;BME280;5350;42.698;23.148;2023-03-03T05:57:00;93584.94;;;4.90;100.00
10606;BME280;5350;42.698;23.148;2023-03-03T05:59:26;93584.16;;;4.95;100.00
10606;BME280;5350;42.698;23.148;2023-03-03T06:01:53;93584.16;;;4.95;100.00
10606;BME280;5350;42.698;23.148;2023-03-03T06:04:20;93582.34;;;4.95;100.00
10606;BME280;5350;42.698;23.148;2023-03-03T06:06:46;93586.00;;;4.94;100.00
10606;BME280;5350;42.698;23.148;2023-03-03T06:09:15;93582.88;;;4.97;100.00
10606;BME280;5350;42.698;23.148;2023-03-03T06:11:43;93593.84;;;5.04;100.00
10606;BME280;5350;42.698;23.148;2023-03-03T06:14:10;93581.63;;;5.05;100.00
10606;BME280;5350;42.698;23.148;2023-03-03T06:16:37;93591.78;;;5.06;100.00
10606;BME280;5350;42.698;23.148;2023-03-03T06:19:04;93592.81;;;5.00;100.00
10606;BME280;5350;42.698;23.148;2023-03-03T06:21:30;93590.97;;;5.01;100.00
10606;BME280;5350;42.698;23.148;2023-03-03T06:23:57;93592.56;;;5.07;100.00
10606;BME280;5350;42.698;23.148;2023-03-03T06:26:25;93592.84;;;5.10;100.00
10606;BME280;5350;42.698;23.148;2023-03-03T06:28:52;93592.59;;;5.17;100.00
10606;BME280;5350;42.698;23.148;2023-03-03T06:31:19;93601.97;;;5.13;100.00
10606;BME280;5350;42.698;23.148;2023-03-03T06:33:46;93596.00;;;5.17;100.00
10606;BME280;5350;42.698;23.148;2023-03-03T06:36:13;93609.31;;;5.31;100.00
10606;BME280;5350;42.698;23.148;2023-03-03T06:38:40;93604.38;;;5.29;100.00
10606;BME280;5350;42.698;23.148;2023-03-03T06:41:06;93601.00;;;5.34;100.00
10606;BME280;5350;42.698;23.148;2023-03-03T06:43:35;93607.00;;;5.39;100.00
10606;BME280;5350;42.698;23.148;2023-03-03T06:46:02;93605.44;;;5.43;100.00
10606;BME280;5350;42.698;23.148;2023-03-03T06:48:29;93605.97;;;5.45;100.00
10606;BME280;5350;42.698;23.148;2023-03-03T06:50:59;93607.56;;;5.46;100.00
10606;BME280;5350;42.698;23.148;2023-03-03T06:53:27;93606.22;;;5.49;100.00
10606;BME280;5350;42.698;23.148;2023-03-03T06:55:54;93608.88;;;5.64;100.00
10606;BME280;5350;42.698;23.148;2023-03-03T06:58:22;93608.63;;;5.71;100.00
10606;BME280;5350;42.698;23.148;2023-03-03T07:00:53;93601.31;;;5.73;100.00
10606;BME280;5350;42.698;23.148;2023-03-03T07:03:23;93610.19;;;5.72;100.00
10606;BME280;5350;42.698;23.148;2023-03-03T07:05:50;93612.03;;;5.76;100.00
10606;BME280;5350;42.698;23.148;2023-03-03T07:08:19;93607.84;;;5.80;100.00
10606;BME280;5350;42.698;23.148;2023-03-03T07:10:48;93609.19;;;5.78;100.00
10606;BME280;5350;42.698;23.148;2023-03-03T07:13:19;93604.22;;;5.81;100.00
10606;BME280;5350;42.698;23.148;2023-03-03T07:15:47;93609.97;;;5.83;100.00
10606;BME280;5350;42.698;23.148;2023-03-03T07:18:36;93616.50;;;5.91;100.00
10606;BME280;5350;42.698;23.148;2023-03-03T07:21:13;93611.84;;;6.03;100.00
10606;BME280;5350;42.698;23.148;2023-03-03T07:23:43;93616.00;;;6.04;100.00
10606;BME280;5350;42.698;23.148;2023-03-03T07:26:11;93614.69;;;6.11;100.00
10606;BME280;5350;42.698;23.148;2023-03-03T07:28:40;93607.91;;;6.20;100.00
10606;BME280;5350;42.698;23.148;2023-03-03T07:31:29;93613.38;;;6.24;100.00
10606;BME280;5350;42.698;23.148;2023-03-03T07:33:59;93607.13;;;6.20;100.00
10606;BME280;5350;42.698;23.148;2023-03-03T07:36:28;93610.00;;;6.13;100.00
10606;BME280;5350;42.698;23.148;2023-03-03T07:38:58;93612.34;;;6.20;100.00
10606;BME280;5350;42.698;23.148;2023-03-03T07:41:26;93609.22;;;6.23;100.00
10606;BME280;5350;42.698;23.148;2023-03-03T07:44:04;93603.50;;;6.11;100.00
10606;BME280;5350;42.698;23.148;2023-03-03T07:46:35;93600.84;;;6.16;100.00
10606;BME280;5350;42.698;23.148;2023-03-03T07:49:19;93599.56;;;6.08;100.00
10606;BME280;5350;42.698;23.148;2023-03-03T07:51:47;93605.28;;;6.05;100.00
10606;BME280;5350;42.698;23.148;2023-03-03T07:54:29;93595.38;;;6.12;100.00
10606;BME280;5350;42.698;23.148;2023-03-03T07:56:57;93600.59;;;6.02;100.00
10606;BME280;5350;42.698;23.148;2023-03-03T07:59:27;93606.09;;;6.06;100.00
10606;BME280;5350;42.698;23.148;2023-03-03T08:01:55;93604.00;;;5.98;100.00
10606;BME280;5350;42.698;23.148;2023-03-03T08:04:28;93600.84;;;5.91;100.00
10606;BME280;5350;42.698;23.148;2023-03-03T08:06:59;93595.63;;;6.06;100.00
10606;BME280;5350;42.698;23.148;2023-03-03T08:09:40;93603.75;;;6.14;100.00
10606;BME280;5350;42.698;23.148;2023-03-03T08:15:20;93595.63;;;6.16;100.00
10606;BME280;5350;42.698;23.148;2023-03-03T08:17:49;93594.84;;;6.25;100.00
10606;BME280;5350;42.698;23.148;2023-03-03T08:20:41;93592.75;;;6.37;100.00
10606;BME280;5350;42.698;23.148;2023-03-03T08:23:09;93594.06;;;6.30;100.00
10606;BME280;5350;42.698;23.148;2023-03-03T08:25:37;93595.38;;;6.22;100.00
10606;BME280;5350;42.698;23.148;2023-03-03T08:28:03;93585.69;;;6.33;100.00
10606;BME280;5350;42.698;23.148;2023-03-03T08:30:30;93583.09;;;6.33;100.00
10606;BME280;5350;42.698;23.148;2023-03-03T08:32:57;93587.53;;;6.22;100.00
10606;BME280;5350;42.698;23.148;2023-03-03T08:35:24;93595.63;;;6.16;100.00
10606;BME280;5350;42.698;23.148;2023-03-03T08:37:52;93578.94;;;6.02;100.00
10606;BME280;5350;42.698;23.148;2023-03-03T08:40:19;93585.72;;;5.93;100.00
10606;BME280;5350;42.698;23.148;2023-03-03T08:42:45;93576.31;;;6.17;100.00
10606;BME280;5350;42.698;23.148;2023-03-03T08:45:13;93579.97;;;6.36;100.00
10606;BME280;5350;42.698;23.148;2023-03-03T08:47:40;93582.56;;;6.41;100.00
10606;BME280;5350;42.698;23.148;2023-03-03T08:50:08;93585.94;;;6.52;100.00
10606;BME280;5350;42.698;23.148;2023-03-03T08:52:34;93593.47;;;6.68;100.00
10606;BME280;5350;42.698;23.148;2023-03-03T08:55:03;93582.25;;;6.58;100.00
10606;BME280;5350;42.698;23.148;2023-03-03T08:57:29;93592.97;;;6.51;100.00
10606;BME280;5350;42.698;23.148;2023-03-03T08:59:56;93586.44;;;6.54;100.00
10606;BME280;5350;42.698;23.148;2023-03-03T09:02:23;93593.22;;;6.65;100.00
10606;BME280;5350;42.698;23.148;2023-03-03T09:04:50;93590.34;;;6.71;100.00
10606;BME280;5350;42.698;23.148;2023-03-03T09:07:17;93590.53;;;6.90;100.00
10606;BME280;5350;42.698;23.148;2023-03-03T09:09:43;93594.75;;;6.86;100.00
10606;BME280;5350;42.698;23.148;2023-03-03T09:12:15;93587.63;;;7.01;100.00
10606;BME280;5350;42.698;23.148;2023-03-03T09:14:42;93592.84;;;7.01;100.00
10606;BME280;5350;42.698;23.148;2023-03-03T09:17:22;93592.59;;;6.98;100.00
10606;BME280;5350;42.698;23.148;2023-03-03T09:19:50;93595.78;;;6.90;100.00
10606;BME280;5350;42.698;23.148;2023-03-03T09:22:19;93594.72;;;6.91;100.00
10606;BME280;5350;42.698;23.148;2023-03-03T09:24:48;93592.34;;;6.99;100.00
10606;BME280;5350;42.698;23.148;2023-03-03T09:27:26;93595.22;;;7.03;100.00
10606;BME280;5350;42.698;23.148;2023-03-03T09:29:54;93593.84;;;7.15;100.00
10606;BME280;5350;42.698;23.148;2023-03-03T09:32:28;93593.84;;;7.15;100.00
10606;BME280;5350;42.698;23.148;2023-03-03T09:34:55;93595.38;;;7.26;100.00
10606;BME280;5350;42.698;23.148;2023-03-03T09:37:23;93593.22;;;7.39;100.00
10606;BME280;5350;42.698;23.148;2023-03-03T09:39:53;93589.34;;;7.31;100.00
10606;BME280;5350;42.698;23.148;2023-03-03T09:42:47;93598.66;;;7.52;100.00
10606;BME280;5350;42.698;23.148;2023-03-03T09:45:42;93599.50;;;7.38;100.00
10606;BME280;5350;42.698;23.148;2023-03-03T09:48:41;93597.00;;;7.17;100.00
10606;BME280;5350;42.698;23.148;2023-03-03T09:51:25;93592.06;;;7.01;100.00
10606;BME280;5350;42.698;23.148;2023-03-03T09:54:06;93599.41;;;6.94;100.00
10606;BME280;5350;42.698;23.148;2023-03-03T09:56:38;93589.72;;;6.99;100.00
10606;BME280;5350;42.698;23.148;2023-03-03T09:59:26;93594.38;;;7.07;100.00
10606;BME280;5350;42.698;23.148;2023-03-03T10:02:18;93593.88;;;7.10;100.00
10606;BME280;5350;42.698;23.148;2023-03-03T10:05:11;93588.69;;;6.95;100.00
10606;BME280;5350;42.698;23.148;2023-03-03T10:07:48;93593.88;;;7.05;100.00
10606;BME280;5350;42.698;23.148;2023-03-03T10:10:26;93584.47;;;7.04;100.00
10606;BME280;5350;42.698;23.148;2023-03-03T10:13:07;93582.66;;;7.05;100.00
10606;BME280;5350;42.698;23.148;2023-03-03T10:15:45;93582.63;;;7.10;100.00
10606;BME280;5350;42.698;23.148;2023-03-03T10:18:27;93585.19;;;7.20;100.00
10606;BME280;5350;42.698;23.148;2023-03-03T10:21:03;93578.88;;;7.31;100.00
10606;BME280;5350;42.698;23.148;2023-03-03T10:23:52;93585.34;;;7.39;100.00
10606;BME280;5350;42.698;23.148;2023-03-03T10:26:32;93576.78;;;7.28;100.00
10606;BME280;5350;42.698;23.148;2023-03-03T10:29:11;93573.41;;;7.28;100.00
10606;BME280;5350;42.698;23.148;2023-03-03T10:35:01;93573.69;;;7.16;100.00
10606;BME280;5350;42.698;23.148;2023-03-03T10:37:39;93559.88;;;7.10;100.00
10606;BME280;5350;42.698;23.148;2023-03-03T10:40:16;93564.53;;;7.18;100.00
10606;BME280;5350;42.698;23.148;2023-03-03T10:43:04;93566.31;;;7.28;100.00
10606;BME280;5350;42.698;23.148;2023-03-03T10:48:41;93574.94;;;7.34;100.00
10606;BME280;5350;42.698;23.148;2023-03-03T10:51:22;93569.66;;;7.39;100.00
10606;BME280;5350;42.698;23.148;2023-03-03T10:54:02;93558.69;;;7.37;100.00
10606;BME280;5350;42.698;23.148;2023-03-03T10:56:40;93559.69;;;7.41;100.00
10606;BME280;5350;42.698;23.148;2023-03-03T10:59:30;93559.75;;;7.31;100.00
10606;BME280;5350;42.698;23.148;2023-03-03T11:02:02;93550.09;;;7.26;100.00
10606;BME280;5350;42.698;23.148;2023-03-03T11:04:51;93558.72;;;7.32;100.00
10606;BME280;5350;42.698;23.148;2023-03-03T11:07:26;93547.69;;;7.35;100.00
10606;BME280;5350;42.698;23.148;2023-03-03T11:10:04;93545.09;;;7.35;100.00
10606;BME280;5350;42.698;23.148;2023-03-03T11:12:43;93536.50;;;7.29;100.00
10606;BME280;5350;42.698;23.148;2023-03-03T11:15:32;93533.53;;;7.41;100.00
10606;BME280;5350;42.698;23.148;2023-03-03T11:18:15;93530.63;;;7.47;100.00
10606;BME280;5350;42.698;23.148;2023-03-03T11:20:53;93535.28;;;7.55;100.00
10606;BME280;5350;42.698;23.148;2023-03-03T11:23:51;93530.25;;;7.64;100.00
10606;BME280;5350;42.698;23.148;2023-03-03T11:26:26;93528.22;;;7.56;100.00
10606;BME280;5350;42.698;23.148;2023-03-03T11:29:26;93526.63;;;7.16;100.00
10606;BME280;5350;42.698;23.148;2023-03-03T11:31:56;93528.34;;;6.82;100.00
10606;BME280;5350;42.698;23.148;2023-03-03T11:34:43;93522.41;;;6.61;100.00
10606;BME280;5350;42.698;23.148;2023-03-03T11:37:16;93533.47;;;6.38;100.00
10606;BME280;5350;42.698;23.148;2023-03-03T11:39:49;93530.34;;;6.16;100.00
10606;BME280;5350;42.698;23.148;2023-03-03T11:42:24;93516.75;;;6.14;100.00
10606;BME280;5350;42.698;23.148;2023-03-03T11:44:54;93514.69;;;5.91;100.00
10606;BME280;5350;42.698;23.148;2023-03-03T11:47:24;93513.13;;;5.80;100.00
10606;BME280;5350;42.698;23.148;2023-03-03T11:49:56;93508.97;;;5.84;100.00
10606;BME280;5350;42.698;23.148;2023-03-03T11:52:32;93512.84;;;5.76;100.00
10606;BME280;5350;42.698;23.148;2023-03-03T11:55:09;93502.16;;;5.73;100.00
10606;BME280;5350;42.698;23.148;2023-03-03T11:57:41;93510.50;;;5.54;100.00
10606;BME280;5350;42.698;23.148;2023-03-03T12:00:28;93505.00;;;5.51;100.00
10606;BME280;5350;42.698;23.148;2023-03-03T12:03:12;93513.88;;;5.45;100.00
10606;BME280;5350;42.698;23.148;2023-03-03T12:05:49;93511.03;;;5.51;100.00
10606;BME280;5350;42.698;23.148;2023-03-03T12:08:31;93498.50;;;5.58;100.00
10606;BME280;5350;42.698;23.148;2023-03-03T12:11:07;93496.69;;;5.69;100.00
10606;BME280;5350;42.698;23.148;2023-03-03T12:13:48;93507.63;;;5.56;100.00
10606;BME280;5350;42.698;23.148;2023-03-03T12:16:25;93507.13;;;5.59;100.00
10606;BME280;5350;42.698;23.148;2023-03-03T12:19:05;93495.63;;;5.70;100.00
10606;BME280;5350;42.698;23.148;2023-03-03T12:21:59;93500.06;;;5.69;100.00
10606;BME280;5350;42.698;23.148;2023-03-03T12:24:45;93499.53;;;5.47;100.00
10606;BME280;5350;42.698;23.148;2023-03-03T12:27:22;93502.94;;;5.43;100.00
10606;BME280;5350;42.698;23.148;2023-03-03T12:30:02;93496.94;;;5.37;100.00
10606;BME280;5350;42.698;23.148;2023-03-03T12:32:45;93507.88;;;5.39;100.00
10606;BME280;5350;42.698;23.148;2023-03-03T12:35:19;93505.53;;;5.38;100.00
10606;BME280;5350;42.698;23.148;2023-03-03T12:37:54;93504.22;;;5.35;100.00
10606;BME280;5350;42.698;23.148;2023-03-03T12:40:28;93502.69;;;5.49;100.00
10606;BME280;5350;42.698;23.148;2023-03-03T12:43:11;93505.03;;;5.56;100.00
10606;BME280;5350;42.698;23.148;2023-03-03T12:45:50;93500.84;;;5.60;100.00
10606;BME280;5350;42.698;23.148;2023-03-03T12:48:25;93506.84;;;5.65;100.00
10606;BME280;5350;42.698;23.148;2023-03-03T12:51:00;93507.38;;;5.83;100.00
10606;BME280;5350;42.698;23.148;2023-03-03T12:53:48;93506.63;;;5.92;100.00
10606;BME280;5350;42.698;23.148;2023-03-03T12:56:25;93501.63;;;6.06;100.00
10606;BME280;5350;42.698;23.148;2023-03-03T12:58:59;93500.31;;;6.23;100.00
10606;BME280;5350;42.698;23.148;2023-03-03T13:01:47;93494.75;;;6.45;100.00
10606;BME280;5350;42.698;23.148;2023-03-03T13:04:28;93493.34;;;6.68;100.00
10606;BME280;5350;42.698;23.148;2023-03-03T13:07:04;93500.63;;;6.86;100.00
10606;BME280;5350;42.698;23.148;2023-03-03T13:09:42;93495.28;;;7.06;100.00
10606;BME280;5350;42.698;23.148;2023-03-03T13:12:33;93496.81;;;7.17;100.00
10606;BME280;5350;42.698;23.148;2023-03-03T13:15:11;93485.47;;;7.32;100.00
10606;BME280;5350;42.698;23.148;2023-03-03T13:17:47;93488.00;;;7.47;100.00
10606;BME280;5350;42.698;23.148;2023-03-03T13:20:24;93485.22;;;7.67;100.00
10606;BME280;5350;42.698;23.148;2023-03-03T13:23:00;93489.88;;;7.70;100.00
10606;BME280;5350;42.698;23.148;2023-03-03T13:25:37;93487.25;;;7.75;100.00
10606;BME280;5350;42.698;23.148;2023-03-03T13:28:12;93484.03;;;7.83;100.00
10606;BME280;5350;42.698;23.148;2023-03-03T13:30:48;93492.47;;;8.03;100.00
10606;BME280;5350;42.698;23.148;2023-03-03T13:33:21;93484.31;;;8.10;100.00